Portersville, PA (16051)

2:15 AM EST on March 01, 2015 (GMT -0500)
Fombell | Change Station
CLOSE
Current Station
Personal Weather Station
Location: Fombell, PA
Elevation: 1240 ft
Nearby Weather Stations
Active Advisory: Winter Weather Advisory Active Notice: Record Report

Elev 1240 ft 40.85 °N, 80.20 °W | Updated 17 seconds ago

Clear
Clear
20.1 °F
Feels Like 20 °F
N
0.0
Wind Variable Wind from SE
Gusts 4.5 mph

Today
High -- | Low -- °F
--% Chance of Precip.
Yesterday
High -- | Low -- °F
Precip. -- in
6:55 AM 6:11 PM
Waxing Gibbous, 83% visible
Pressure 30.51 in
Visibility 2.5 miles
Clouds Mostly Cloudy 300 ft
Overcast 1100 ft
Windchill 20 °F
Dew Point 2 °F
Humidity 45%
Rainfall 0.00 in
Snow Depth Not available.
UV 0 out of 12
Pollen .50 out of 12
Air Quality Not available.
Flu Activity Not available.
SPECI KUCP 010649Z AUTO 00000KT 2 1/2SM -SN BR BKN003 OVC011 M09/M11 A3051 RMK AO2 P0000

More Conditions Fewer Conditions

Pressure 30.51 in
Visibility 2.5 miles
Clouds Mostly Cloudy 300 ft
Overcast 1100 ft
Windchill 20 °F
Dew Point 2 °F
Humidity 45%
Rainfall 0.00 in
Snow Depth Not available.
UV 0 out of 12
Pollen .50 out of 12
Air Quality Not available.
Flu Activity Not available.
SPECI KUCP 010649Z AUTO 00000KT 2 1/2SM -SN BR BKN003 OVC011 M09/M11 A3051 RMK AO2 P0000

More Conditions Fewer Conditions

10-Day Weather Forecast

Almanac

Astronomy

Mar. 01, 2015 Rise Set
Actual Time
Civil Twilight
Nautical Twilight
Astronomical Twilight
Moon
Length of Visible Light
Length of Day
Tomorrow will be .
, % of the Moon is Illuminated

Today's Extremes

State Highs State Lows

Community

WunderPhotos

Upload Photos

1,801,347 photos uploaded!

WunderBlogs® & News

Nearby

Air Quality

  Air Quality AQ Index Pollutant
Not available.

Snow Depth

Station Depth Elevation

Earthquake Activity

City Distance Mag. Time & Date
Minimum magnitude displayed is 2.5.

Coastal Water Temperatures

Place Temperature

Nearby Weather Stations

Winter Weather Advisory
Statement as of 9:51 PM EST on February 28, 2015

... Winter Weather Advisory remains in effect from 4 am Sunday to
7 am EST Monday...

* snow accumulation... 4 to 7 inches.

* Snow beginning... late tonight.

* Period of most intense snow... late Sunday morning into
afternoon.

* Snow ending... snow will taper off on Sunday night.

* Impacts..hazardous travel conditions are expected due to snow
accumulation.

Precautionary/preparedness actions...

A Winter Weather Advisory for snow means that snowfall will cause
travel difficulties. Be prepared for snow covered roads. Report
snow accumulation to the National Weather Service by calling
412-262-1988... posting to the NWS Pittsburgh facebook Page... or
using twitter @nwspittsburgh.